sensor_id;sensor_type;location;lat;lon;timestamp;P1;durP1;ratioP1;P2;durP2;ratioP2
4754;SDS011;2391;47.212;7.542;2022-11-20T00:00:38;1.00;;;0.90;;
4754;SDS011;2391;47.212;7.542;2022-11-20T00:03:04;1.30;;;1.20;;
4754;SDS011;2391;47.212;7.542;2022-11-20T00:05:32;1.90;;;1.00;;
4754;SDS011;2391;47.212;7.542;2022-11-20T00:07:58;1.07;;;1.07;;
4754;SDS011;2391;47.212;7.542;2022-11-20T00:10:24;1.30;;;1.20;;
4754;SDS011;2391;47.212;7.542;2022-11-20T00:12:50;1.27;;;1.17;;
4754;SDS011;2391;47.212;7.542;2022-11-20T00:15:16;2.43;;;1.30;;
4754;SDS011;2391;47.212;7.542;2022-11-20T00:17:42;1.40;;;1.30;;
4754;SDS011;2391;47.212;7.542;2022-11-20T00:20:08;2.57;;;1.40;;
4754;SDS011;2391;47.212;7.542;2022-11-20T00:22:35;1.80;;;1.17;;
4754;SDS011;2391;47.212;7.542;2022-11-20T00:25:01;3.33;;;1.30;;
4754;SDS011;2391;47.212;7.542;2022-11-20T00:27:26;1.70;;;1.60;;
4754;SDS011;2391;47.212;7.542;2022-11-20T00:29:53;3.00;;;1.10;;
4754;SDS011;2391;47.212;7.542;2022-11-20T00:32:19;3.63;;;1.60;;
4754;SDS011;2391;47.212;7.542;2022-11-20T00:34:45;1.10;;;1.10;;
4754;SDS011;2391;47.212;7.542;2022-11-20T00:37:10;1.73;;;1.60;;
4754;SDS011;2391;47.212;7.542;2022-11-20T00:39:36;1.40;;;1.30;;
4754;SDS011;2391;47.212;7.542;2022-11-20T00:42:03;2.37;;;1.60;;
4754;SDS011;2391;47.212;7.542;2022-11-20T00:44:29;3.17;;;1.63;;
4754;SDS011;2391;47.212;7.542;2022-11-20T00:46:55;3.20;;;1.60;;
4754;SDS011;2391;47.212;7.542;2022-11-20T00:49:21;1.67;;;1.57;;
4754;SDS011;2391;47.212;7.542;2022-11-20T00:51:47;1.63;;;1.53;;
4754;SDS011;2391;47.212;7.542;2022-11-20T00:54:13;4.60;;;1.50;;
4754;SDS011;2391;47.212;7.542;2022-11-20T00:56:40;1.60;;;1.50;;
4754;SDS011;2391;47.212;7.542;2022-11-20T00:59:06;1.80;;;1.63;;
4754;SDS011;2391;47.212;7.542;2022-11-20T01:01:34;1.53;;;1.43;;
4754;SDS011;2391;47.212;7.542;2022-11-20T01:04:01;2.00;;;1.80;;
4754;SDS011;2391;47.212;7.542;2022-11-20T01:06:28;1.87;;;1.77;;
4754;SDS011;2391;47.212;7.542;2022-11-20T01:08:58;1.97;;;1.83;;
4754;SDS011;2391;47.212;7.542;2022-11-20T01:11:27;4.70;;;1.90;;
4754;SDS011;2391;47.212;7.542;2022-11-20T01:13:55;1.87;;;1.77;;
4754;SDS011;2391;47.212;7.542;2022-11-20T01:16:28;1.37;;;1.30;;
4754;SDS011;2391;47.212;7.542;2022-11-20T01:18:57;2.10;;;1.43;;
4754;SDS011;2391;47.212;7.542;2022-11-20T01:21:26;1.80;;;1.70;;
4754;SDS011;2391;47.212;7.542;2022-11-20T01:23:54;1.57;;;1.47;;
4754;SDS011;2391;47.212;7.542;2022-11-20T01:26:21;1.97;;;1.60;;
4754;SDS011;2391;47.212;7.542;2022-11-20T01:28:49;1.80;;;1.70;;
4754;SDS011;2391;47.212;7.542;2022-11-20T01:31:18;1.77;;;1.40;;
4754;SDS011;2391;47.212;7.542;2022-11-20T01:33:46;1.90;;;1.80;;
4754;SDS011;2391;47.212;7.542;2022-11-20T01:36:15;1.60;;;1.50;;
4754;SDS011;2391;47.212;7.542;2022-11-20T01:38:42;1.83;;;1.50;;
4754;SDS011;2391;47.212;7.542;2022-11-20T01:41:09;1.80;;;1.70;;
4754;SDS011;2391;47.212;7.542;2022-11-20T01:43:36;2.00;;;1.40;;
4754;SDS011;2391;47.212;7.542;2022-11-20T01:46:08;2.10;;;1.57;;
4754;SDS011;2391;47.212;7.542;2022-11-20T01:53:54;1.70;;;1.53;;
4754;SDS011;2391;47.212;7.542;2022-11-20T01:56:22;1.20;;;1.17;;
4754;SDS011;2391;47.212;7.542;2022-11-20T01:58:51;1.33;;;1.23;;
4754;SDS011;2391;47.212;7.542;2022-11-20T02:01:20;1.60;;;1.50;;
4754;SDS011;2391;47.212;7.542;2022-11-20T02:03:47;3.20;;;1.53;;
4754;SDS011;2391;47.212;7.542;2022-11-20T02:09:08;1.53;;;1.43;;
4754;SDS011;2391;47.212;7.542;2022-11-20T02:11:34;3.33;;;1.80;;
4754;SDS011;2391;47.212;7.542;2022-11-20T02:14:01;5.97;;;1.80;;
4754;SDS011;2391;47.212;7.542;2022-11-20T02:16:31;1.63;;;1.53;;
4754;SDS011;2391;47.212;7.542;2022-11-20T02:19:00;1.53;;;1.40;;
4754;SDS011;2391;47.212;7.542;2022-11-20T02:24:05;1.40;;;1.30;;
4754;SDS011;2391;47.212;7.542;2022-11-20T02:26:47;1.30;;;1.20;;
4754;SDS011;2391;47.212;7.542;2022-11-20T02:29:31;1.60;;;1.50;;
4754;SDS011;2391;47.212;7.542;2022-11-20T02:31:59;1.60;;;1.50;;
4754;SDS011;2391;47.212;7.542;2022-11-20T02:34:27;1.60;;;1.30;;
4754;SDS011;2391;47.212;7.542;2022-11-20T02:36:54;1.47;;;1.30;;
4754;SDS011;2391;47.212;7.542;2022-11-20T02:39:22;1.10;;;1.10;;
4754;SDS011;2391;47.212;7.542;2022-11-20T02:41:52;1.30;;;1.20;;
4754;SDS011;2391;47.212;7.542;2022-11-20T02:44:19;1.00;;;1.00;;
4754;SDS011;2391;47.212;7.542;2022-11-20T02:46:46;0.93;;;0.93;;
4754;SDS011;2391;47.212;7.542;2022-11-20T02:49:12;1.03;;;1.03;;
4754;SDS011;2391;47.212;7.542;2022-11-20T02:51:38;1.13;;;0.93;;
4754;SDS011;2391;47.212;7.542;2022-11-20T02:54:04;1.10;;;1.10;;
4754;SDS011;2391;47.212;7.542;2022-11-20T02:56:30;1.53;;;1.10;;
4754;SDS011;2391;47.212;7.542;2022-11-20T02:58:57;1.30;;;1.20;;
4754;SDS011;2391;47.212;7.542;2022-11-20T03:01:23;1.40;;;1.23;;
4754;SDS011;2391;47.212;7.542;2022-11-20T03:03:50;1.50;;;1.40;;
4754;SDS011;2391;47.212;7.542;2022-11-20T03:06:17;2.10;;;1.30;;
4754;SDS011;2391;47.212;7.542;2022-11-20T03:08:44;1.07;;;1.07;;
4754;SDS011;2391;47.212;7.542;2022-11-20T03:11:10;2.57;;;0.90;;
4754;SDS011;2391;47.212;7.542;2022-11-20T03:13:37;2.80;;;1.40;;
4754;SDS011;2391;47.212;7.542;2022-11-20T03:16:10;2.03;;;0.93;;
4754;SDS011;2391;47.212;7.542;2022-11-20T03:18:39;1.13;;;1.07;;
4754;SDS011;2391;47.212;7.542;2022-11-20T03:21:07;1.37;;;1.17;;
4754;SDS011;2391;47.212;7.542;2022-11-20T03:23:34;1.20;;;1.13;;
4754;SDS011;2391;47.212;7.542;2022-11-20T03:26:11;2.40;;;1.37;;
4754;SDS011;2391;47.212;7.542;2022-11-20T03:28:48;2.30;;;1.30;;
4754;SDS011;2391;47.212;7.542;2022-11-20T03:31:17;3.00;;;1.23;;
4754;SDS011;2391;47.212;7.542;2022-11-20T03:33:44;1.57;;;1.40;;
4754;SDS011;2391;47.212;7.542;2022-11-20T03:36:12;1.70;;;1.60;;
4754;SDS011;2391;47.212;7.542;2022-11-20T03:38:40;1.90;;;1.50;;
4754;SDS011;2391;47.212;7.542;2022-11-20T03:41:08;1.30;;;1.20;;
4754;SDS011;2391;47.212;7.542;2022-11-20T03:43:36;1.97;;;1.20;;
4754;SDS011;2391;47.212;7.542;2022-11-20T03:46:03;2.07;;;1.33;;
4754;SDS011;2391;47.212;7.542;2022-11-20T03:48:31;2.70;;;1.40;;
4754;SDS011;2391;47.212;7.542;2022-11-20T03:51:10;1.70;;;1.30;;
4754;SDS011;2391;47.212;7.542;2022-11-20T03:53:36;2.20;;;1.40;;
4754;SDS011;2391;47.212;7.542;2022-11-20T03:56:02;1.80;;;1.47;;
4754;SDS011;2391;47.212;7.542;2022-11-20T03:58:29;2.13;;;1.40;;
4754;SDS011;2391;47.212;7.542;2022-11-20T04:00:57;1.07;;;0.93;;
4754;SDS011;2391;47.212;7.542;2022-11-20T04:03:23;2.50;;;1.00;;
4754;SDS011;2391;47.212;7.542;2022-11-20T04:05:51;1.43;;;1.33;;
4754;SDS011;2391;47.212;7.542;2022-11-20T04:08:17;1.30;;;1.20;;
4754;SDS011;2391;47.212;7.542;2022-11-20T04:10:43;1.40;;;1.30;;
4754;SDS011;2391;47.212;7.542;2022-11-20T04:13:09;1.20;;;1.10;;
4754;SDS011;2391;47.212;7.542;2022-11-20T04:15:36;1.17;;;1.10;;
4754;SDS011;2391;47.212;7.542;2022-11-20T04:18:02;1.20;;;1.20;;
4754;SDS011;2391;47.212;7.542;2022-11-20T04:20:28;1.27;;;1.17;;
4754;SDS011;2391;47.212;7.542;2022-11-20T04:22:55;1.07;;;1.07;;
4754;SDS011;2391;47.212;7.542;2022-11-20T04:25:21;1.10;;;1.00;;
4754;SDS011;2391;47.212;7.542;2022-11-20T04:27:47;1.27;;;1.17;;
4754;SDS011;2391;47.212;7.542;2022-11-20T04:30:13;1.07;;;1.00;;
4754;SDS011;2391;47.212;7.542;2022-11-20T04:32:40;1.57;;;1.47;;
4754;SDS011;2391;47.212;7.542;2022-11-20T04:35:06;2.30;;;1.23;;
4754;SDS011;2391;47.212;7.542;2022-11-20T04:37:33;4.00;;;1.40;;
4754;SDS011;2391;47.212;7.542;2022-11-20T04:39:59;3.80;;;1.30;;
4754;SDS011;2391;47.212;7.542;2022-11-20T04:42:25;1.33;;;0.87;;
4754;SDS011;2391;47.212;7.542;2022-11-20T04:44:54;1.53;;;1.13;;
4754;SDS011;2391;47.212;7.542;2022-11-20T04:47:21;1.20;;;1.10;;
4754;SDS011;2391;47.212;7.542;2022-11-20T04:49:48;1.30;;;1.20;;
4754;SDS011;2391;47.212;7.542;2022-11-20T04:52:13;1.20;;;1.10;;
4754;SDS011;2391;47.212;7.542;2022-11-20T04:54:40;1.20;;;1.10;;
4754;SDS011;2391;47.212;7.542;2022-11-20T04:57:06;1.10;;;1.10;;
4754;SDS011;2391;47.212;7.542;2022-11-20T04:59:32;1.73;;;1.20;;
4754;SDS011;2391;47.212;7.542;2022-11-20T05:01:59;1.50;;;1.20;;
4754;SDS011;2391;47.212;7.542;2022-11-20T05:04:25;3.50;;;1.10;;
4754;SDS011;2391;47.212;7.542;2022-11-20T05:06:51;1.20;;;1.20;;
4754;SDS011;2391;47.212;7.542;2022-11-20T05:09:18;1.20;;;1.10;;
4754;SDS011;2391;47.212;7.542;2022-11-20T05:11:44;1.37;;;1.27;;
4754;SDS011;2391;47.212;7.542;2022-11-20T05:14:10;1.47;;;1.10;;
4754;SDS011;2391;47.212;7.542;2022-11-20T05:16:36;1.30;;;1.30;;
4754;SDS011;2391;47.212;7.542;2022-11-20T05:19:03;1.53;;;1.10;;
4754;SDS011;2391;47.212;7.542;2022-11-20T05:21:30;1.10;;;1.10;;
4754;SDS011;2391;47.212;7.542;2022-11-20T05:23:57;1.10;;;1.10;;
4754;SDS011;2391;47.212;7.542;2022-11-20T05:26:27;1.63;;;1.33;;
4754;SDS011;2391;47.212;7.542;2022-11-20T05:28:54;1.10;;;1.00;;
4754;SDS011;2391;47.212;7.542;2022-11-20T05:31:21;2.87;;;1.43;;
4754;SDS011;2391;47.212;7.542;2022-11-20T05:33:49;1.60;;;1.50;;
4754;SDS011;2391;47.212;7.542;2022-11-20T05:36:19;3.07;;;1.23;;
4754;SDS011;2391;47.212;7.542;2022-11-20T05:38:45;2.90;;;1.43;;
4754;SDS011;2391;47.212;7.542;2022-11-20T05:41:17;2.70;;;1.70;;
4754;SDS011;2391;47.212;7.542;2022-11-20T05:43:42;1.17;;;1.10;;
4754;SDS011;2391;47.212;7.542;2022-11-20T05:46:10;1.53;;;1.43;;
4754;SDS011;2391;47.212;7.542;2022-11-20T05:48:39;1.53;;;1.50;;
4754;SDS011;2391;47.212;7.542;2022-11-20T05:51:07;1.60;;;1.50;;
4754;SDS011;2391;47.212;7.542;2022-11-20T05:53:35;2.70;;;1.90;;
4754;SDS011;2391;47.212;7.542;2022-11-20T05:56:10;3.90;;;2.03;;
4754;SDS011;2391;47.212;7.542;2022-11-20T05:58:38;3.23;;;1.77;;
4754;SDS011;2391;47.212;7.542;2022-11-20T06:03:35;1.90;;;1.63;;
4754;SDS011;2391;47.212;7.542;2022-11-20T06:06:02;1.80;;;1.37;;
4754;SDS011;2391;47.212;7.542;2022-11-20T06:08:29;1.53;;;1.40;;
4754;SDS011;2391;47.212;7.542;2022-11-20T06:10:56;1.50;;;1.40;;
4754;SDS011;2391;47.212;7.542;2022-11-20T06:13:22;3.00;;;1.60;;
4754;SDS011;2391;47.212;7.542;2022-11-20T06:15:49;1.47;;;1.37;;
4754;SDS011;2391;47.212;7.542;2022-11-20T06:18:16;1.50;;;1.40;;
4754;SDS011;2391;47.212;7.542;2022-11-20T06:20:42;1.70;;;1.60;;
4754;SDS011;2391;47.212;7.542;2022-11-20T06:23:08;2.50;;;1.80;;
4754;SDS011;2391;47.212;7.542;2022-11-20T06:25:42;2.40;;;1.60;;
4754;SDS011;2391;47.212;7.542;2022-11-20T06:28:07;1.60;;;1.50;;
4754;SDS011;2391;47.212;7.542;2022-11-20T06:30:35;4.57;;;1.90;;
4754;SDS011;2391;47.212;7.542;2022-11-20T06:33:01;2.33;;;1.77;;
4754;SDS011;2391;47.212;7.542;2022-11-20T06:35:27;2.27;;;1.70;;
4754;SDS011;2391;47.212;7.542;2022-11-20T06:37:55;1.70;;;1.60;;
4754;SDS011;2391;47.212;7.542;2022-11-20T06:40:21;1.60;;;1.50;;
4754;SDS011;2391;47.212;7.542;2022-11-20T06:42:48;1.57;;;1.47;;
4754;SDS011;2391;47.212;7.542;2022-11-20T06:45:14;1.57;;;1.47;;
4754;SDS011;2391;47.212;7.542;2022-11-20T06:47:41;1.53;;;1.43;;
4754;SDS011;2391;47.212;7.542;2022-11-20T06:50:07;1.70;;;1.60;;
4754;SDS011;2391;47.212;7.542;2022-11-20T06:52:34;1.70;;;1.60;;
4754;SDS011;2391;47.212;7.542;2022-11-20T06:54:59;2.40;;;2.00;;
4754;SDS011;2391;47.212;7.542;2022-11-20T06:57:26;2.10;;;1.50;;
4754;SDS011;2391;47.212;7.542;2022-11-20T06:59:52;1.50;;;1.50;;
4754;SDS011;2391;47.212;7.542;2022-11-20T07:02:18;1.53;;;1.43;;
4754;SDS011;2391;47.212;7.542;2022-11-20T07:04:45;2.80;;;1.50;;
4754;SDS011;2391;47.212;7.542;2022-11-20T07:07:11;1.50;;;1.40;;
4754;SDS011;2391;47.212;7.542;2022-11-20T07:09:38;3.97;;;1.63;;
4754;SDS011;2391;47.212;7.542;2022-11-20T07:12:05;1.57;;;1.47;;
4754;SDS011;2391;47.212;7.542;2022-11-20T07:14:31;2.30;;;1.33;;
4754;SDS011;2391;47.212;7.542;2022-11-20T07:16:57;1.80;;;1.70;;
4754;SDS011;2391;47.212;7.542;2022-11-20T07:19:24;1.63;;;1.53;;
4754;SDS011;2391;47.212;7.542;2022-11-20T07:21:50;3.17;;;1.50;;
4754;SDS011;2391;47.212;7.542;2022-11-20T07:24:17;1.33;;;1.23;;
4754;SDS011;2391;47.212;7.542;2022-11-20T07:26:45;1.50;;;1.40;;
4754;SDS011;2391;47.212;7.542;2022-11-20T07:29:14;1.90;;;1.27;;
4754;SDS011;2391;47.212;7.542;2022-11-20T07:31:42;1.30;;;1.20;;
4754;SDS011;2391;47.212;7.542;2022-11-20T07:34:08;1.93;;;1.50;;
4754;SDS011;2391;47.212;7.542;2022-11-20T07:36:35;2.17;;;1.73;;
4754;SDS011;2391;47.212;7.542;2022-11-20T07:39:01;1.80;;;1.70;;
4754;SDS011;2391;47.212;7.542;2022-11-20T07:41:28;1.87;;;1.47;;
4754;SDS011;2391;47.212;7.542;2022-11-20T07:43:54;3.80;;;1.40;;
4754;SDS011;2391;47.212;7.542;2022-11-20T07:46:20;2.00;;;1.70;;
4754;SDS011;2391;47.212;7.542;2022-11-20T07:48:47;1.90;;;1.80;;
4754;SDS011;2391;47.212;7.542;2022-11-20T07:51:13;2.33;;;1.57;;
4754;SDS011;2391;47.212;7.542;2022-11-20T07:53:39;1.67;;;1.37;;
4754;SDS011;2391;47.212;7.542;2022-11-20T07:56:06;9.00;;;1.60;;
4754;SDS011;2391;47.212;7.542;2022-11-20T07:58:33;12.23;;;7.67;;
4754;SDS011;2391;47.212;7.542;2022-11-20T08:01:03;8.70;;;6.13;;
4754;SDS011;2391;47.212;7.542;2022-11-20T08:03:31;3.10;;;2.90;;
4754;SDS011;2391;47.212;7.542;2022-11-20T08:05:58;3.80;;;2.73;;
4754;SDS011;2391;47.212;7.542;2022-11-20T08:08:28;4.10;;;2.60;;
4754;SDS011;2391;47.212;7.542;2022-11-20T08:10:58;2.60;;;2.10;;
4754;SDS011;2391;47.212;7.542;2022-11-20T08:13:32;3.33;;;2.10;;
4754;SDS011;2391;47.212;7.542;2022-11-20T08:16:16;2.23;;;2.13;;
4754;SDS011;2391;47.212;7.542;2022-11-20T08:18:43;1.93;;;1.83;;
4754;SDS011;2391;47.212;7.542;2022-11-20T08:21:09;1.90;;;1.80;;
4754;SDS011;2391;47.212;7.542;2022-11-20T08:23:35;1.73;;;1.60;;
4754;SDS011;2391;47.212;7.542;2022-11-20T08:26:02;1.93;;;1.80;;
4754;SDS011;2391;47.212;7.542;2022-11-20T08:28:28;4.07;;;1.90;;
4754;SDS011;2391;47.212;7.542;2022-11-20T08:30:58;1.73;;;1.63;;
4754;SDS011;2391;47.212;7.542;2022-11-20T08:33:25;2.20;;;1.80;;
4754;SDS011;2391;47.212;7.542;2022-11-20T08:35:52;1.83;;;1.73;;
4754;SDS011;2391;47.212;7.542;2022-11-20T08:38:18;6.07;;;2.70;;
4754;SDS011;2391;47.212;7.542;2022-11-20T08:40:44;1.87;;;1.77;;
4754;SDS011;2391;47.212;7.542;2022-11-20T08:43:12;2.00;;;1.80;;
4754;SDS011;2391;47.212;7.542;2022-11-20T08:45:38;1.73;;;1.50;;
4754;SDS011;2391;47.212;7.542;2022-11-20T08:48:05;1.57;;;1.47;;
4754;SDS011;2391;47.212;7.542;2022-11-20T08:50:31;1.70;;;1.60;;
4754;SDS011;2391;47.212;7.542;2022-11-20T08:53:06;2.70;;;1.70;;
4754;SDS011;2391;47.212;7.542;2022-11-20T08:55:30;1.87;;;1.60;;
4754;SDS011;2391;47.212;7.542;2022-11-20T08:57:56;1.27;;;1.20;;
4754;SDS011;2391;47.212;7.542;2022-11-20T09:00:23;1.43;;;1.30;;
4754;SDS011;2391;47.212;7.542;2022-11-20T09:02:49;1.50;;;1.33;;
4754;SDS011;2391;47.212;7.542;2022-11-20T09:05:16;1.83;;;1.40;;
4754;SDS011;2391;47.212;7.542;2022-11-20T09:07:44;1.70;;;1.60;;
4754;SDS011;2391;47.212;7.542;2022-11-20T09:10:11;1.10;;;1.10;;
4754;SDS011;2391;47.212;7.542;2022-11-20T09:12:37;2.13;;;1.20;;
4754;SDS011;2391;47.212;7.542;2022-11-20T09:15:04;4.03;;;1.70;;
4754;SDS011;2391;47.212;7.542;2022-11-20T09:17:31;1.83;;;1.10;;
4754;SDS011;2391;47.212;7.542;2022-11-20T09:19:57;2.30;;;1.30;;
4754;SDS011;2391;47.212;7.542;2022-11-20T09:22:24;1.07;;;1.07;;
4754;SDS011;2391;47.212;7.542;2022-11-20T09:24:50;1.37;;;1.10;;
4754;SDS011;2391;47.212;7.542;2022-11-20T09:27:17;1.00;;;1.00;;
4754;SDS011;2391;47.212;7.542;2022-11-20T09:29:47;4.73;;;1.40;;
4754;SDS011;2391;47.212;7.542;2022-11-20T09:32:13;3.47;;;1.20;;
4754;SDS011;2391;47.212;7.542;2022-11-20T09:34:39;2.80;;;1.30;;
4754;SDS011;2391;47.212;7.542;2022-11-20T09:37:05;1.10;;;1.10;;
4754;SDS011;2391;47.212;7.542;2022-11-20T09:39:32;1.00;;;1.00;;
4754;SDS011;2391;47.212;7.542;2022-11-20T09:42:11;0.90;;;0.90;;
4754;SDS011;2391;47.212;7.542;2022-11-20T09:45:05;1.23;;;1.00;;
4754;SDS011;2391;47.212;7.542;2022-11-20T09:47:53;2.23;;;0.90;;
4754;SDS011;2391;47.212;7.542;2022-11-20T09:55:45;0.80;;;0.80;;
4754;SDS011;2391;47.212;7.542;2022-11-20T10:01:00;1.07;;;0.90;;
4754;SDS011;2391;47.212;7.542;2022-11-20T10:03:36;2.60;;;0.90;;
4754;SDS011;2391;47.212;7.542;2022-11-20T10:06:00;0.90;;;0.90;;
4754;SDS011;2391;47.212;7.542;2022-11-20T10:08:30;0.83;;;0.80;;
4754;SDS011;2391;47.212;7.542;2022-11-20T10:11:05;0.90;;;0.90;;
4754;SDS011;2391;47.212;7.542;2022-11-20T10:14:00;3.13;;;0.80;;
4754;SDS011;2391;47.212;7.542;2022-11-20T10:16:48;1.90;;;0.80;;
4754;SDS011;2391;47.212;7.542;2022-11-20T10:19:24;0.60;;;0.60;;
4754;SDS011;2391;47.212;7.542;2022-11-20T10:29:38;0.60;;;0.60;;
4754;SDS011;2391;47.212;7.542;2022-11-20T10:32:11;0.63;;;0.63;;
4754;SDS011;2391;47.212;7.542;2022-11-20T10:34:58;3.90;;;1.53;;
4754;SDS011;2391;47.212;7.542;2022-11-20T10:37:44;0.57;;;0.57;;
4754;SDS011;2391;47.212;7.542;2022-11-20T10:47:54;0.90;;;0.53;;
4754;SDS011;2391;47.212;7.542;2022-11-20T10:50:22;3.73;;;0.70;;
4754;SDS011;2391;47.212;7.542;2022-11-20T10:58:27;2.10;;;1.10;;
4754;SDS011;2391;47.212;7.542;2022-11-20T11:00:51;0.70;;;0.70;;
4754;SDS011;2391;47.212;7.542;2022-11-20T11:05:51;0.93;;;0.70;;
4754;SDS011;2391;47.212;7.542;2022-11-20T11:08:22;0.80;;;0.80;;
4754;SDS011;2391;47.212;7.542;2022-11-20T11:10:56;0.60;;;0.60;;
4754;SDS011;2391;47.212;7.542;2022-11-20T11:13:28;0.80;;;0.80;;
4754;SDS011;2391;47.212;7.542;2022-11-20T11:15:56;0.70;;;0.70;;
4754;SDS011;2391;47.212;7.542;2022-11-20T11:18:24;2.50;;;0.80;;
4754;SDS011;2391;47.212;7.542;2022-11-20T11:20:52;0.70;;;0.70;;
4754;SDS011;2391;47.212;7.542;2022-11-20T11:23:33;0.90;;;0.90;;
4754;SDS011;2391;47.212;7.542;2022-11-20T11:26:17;0.80;;;0.80;;
4754;SDS011;2391;47.212;7.542;2022-11-20T11:28:36;3.17;;;0.77;;
4754;SDS011;2391;47.212;7.542;2022-11-20T11:31:03;1.30;;;0.60;;
4754;SDS011;2391;47.212;7.542;2022-11-20T11:33:30;1.40;;;0.83;;
4754;SDS011;2391;47.212;7.542;2022-11-20T11:36:03;0.77;;;0.77;;
4754;SDS011;2391;47.212;7.542;2022-11-20T11:38:35;0.80;;;0.80;;
4754;SDS011;2391;47.212;7.542;2022-11-20T11:41:09;1.20;;;1.10;;
4754;SDS011;2391;47.212;7.542;2022-11-20T11:43:33;0.70;;;0.70;;
4754;SDS011;2391;47.212;7.542;2022-11-20T11:51:32;0.83;;;0.67;;
4754;SDS011;2391;47.212;7.542;2022-11-20T11:57:03;0.93;;;0.60;;
4754;SDS011;2391;47.212;7.542;2022-11-20T11:59:28;0.77;;;0.60;;
4754;SDS011;2391;47.212;7.542;2022-11-20T12:01:58;0.70;;;0.60;;
4754;SDS011;2391;47.212;7.542;2022-11-20T12:07:37;0.70;;;0.60;;
4754;SDS011;2391;47.212;7.542;2022-11-20T12:09:48;0.50;;;0.50;;
4754;SDS011;2391;47.212;7.542;2022-11-20T12:14:51;0.40;;;0.40;;
4754;SDS011;2391;47.212;7.542;2022-11-20T12:17:21;0.97;;;0.50;;
4754;SDS011;2391;47.212;7.542;2022-11-20T12:19:47;0.40;;;0.40;;
4754;SDS011;2391;47.212;7.542;2022-11-20T12:22:18;1.30;;;0.40;;
4754;SDS011;2391;47.212;7.542;2022-11-20T12:27:40;0.53;;;0.30;;
4754;SDS011;2391;47.212;7.542;2022-11-20T12:30:19;0.60;;;0.30;;
4754;SDS011;2391;47.212;7.542;2022-11-20T12:35:47;0.37;;;0.37;;
4754;SDS011;2391;47.212;7.542;2022-11-20T12:43:37;0.43;;;0.40;;
4754;SDS011;2391;47.212;7.542;2022-11-20T12:46:36;0.40;;;0.40;;
4754;SDS011;2391;47.212;7.542;2022-11-20T12:49:09;0.47;;;0.40;;
4754;SDS011;2391;47.212;7.542;2022-11-20T12:51:57;0.40;;;0.40;;
4754;SDS011;2391;47.212;7.542;2022-11-20T12:59:56;0.50;;;0.40;;
4754;SDS011;2391;47.212;7.542;2022-11-20T13:05:43;0.93;;;0.30;;
4754;SDS011;2391;47.212;7.542;2022-11-20T13:13:26;0.30;;;0.30;;
4754;SDS011;2391;47.212;7.542;2022-11-20T13:18:26;0.40;;;0.40;;
4754;SDS011;2391;47.212;7.542;2022-11-20T13:20:52;0.30;;;0.30;;
4754;SDS011;2391;47.212;7.542;2022-11-20T13:23:25;2.37;;;0.60;;
4754;SDS011;2391;47.212;7.542;2022-11-20T13:26:35;0.40;;;0.40;;
4754;SDS011;2391;47.212;7.542;2022-11-20T13:28:31;0.40;;;0.40;;
4754;SDS011;2391;47.212;7.542;2022-11-20T13:30:57;0.90;;;0.70;;
4754;SDS011;2391;47.212;7.542;2022-11-20T13:33:28;0.40;;;0.40;;
4754;SDS011;2391;47.212;7.542;2022-11-20T13:35:58;0.40;;;0.40;;
4754;SDS011;2391;47.212;7.542;2022-11-20T13:38:49;0.47;;;0.47;;
4754;SDS011;2391;47.212;7.542;2022-11-20T13:41:22;0.40;;;0.40;;
4754;SDS011;2391;47.212;7.542;2022-11-20T13:44:04;0.47;;;0.30;;
4754;SDS011;2391;47.212;7.542;2022-11-20T13:46:39;0.50;;;0.50;;
4754;SDS011;2391;47.212;7.542;2022-11-20T13:49:09;1.40;;;0.40;;
4754;SDS011;2391;47.212;7.542;2022-11-20T13:51:47;0.40;;;0.40;;
4754;SDS011;2391;47.212;7.542;2022-11-20T14:00:07;0.33;;;0.30;;
4754;SDS011;2391;47.212;7.542;2022-11-20T14:02:44;0.30;;;0.30;;
4754;SDS011;2391;47.212;7.542;2022-11-20T14:05:20;0.40;;;0.40;;
4754;SDS011;2391;47.212;7.542;2022-11-20T14:07:49;0.40;;;0.40;;
4754;SDS011;2391;47.212;7.542;2022-11-20T14:10:25;0.40;;;0.40;;
4754;SDS011;2391;47.212;7.542;2022-11-20T14:12:53;0.30;;;0.30;;
4754;SDS011;2391;47.212;7.542;2022-11-20T14:15:28;0.40;;;0.40;;
4754;SDS011;2391;47.212;7.542;2022-11-20T14:17:52;0.30;;;0.30;;
4754;SDS011;2391;47.212;7.542;2022-11-20T14:20:18;0.30;;;0.30;;
4754;SDS011;2391;47.212;7.542;2022-11-20T14:22:52;0.40;;;0.40;;
4754;SDS011;2391;47.212;7.542;2022-11-20T14:25:21;2.93;;;0.40;;
4754;SDS011;2391;47.212;7.542;2022-11-20T14:27:55;0.40;;;0.40;;
4754;SDS011;2391;47.212;7.542;2022-11-20T14:30:35;0.43;;;0.40;;
4754;SDS011;2391;47.212;7.542;2022-11-20T14:33:10;0.60;;;0.60;;
4754;SDS011;2391;47.212;7.542;2022-11-20T14:35:52;0.50;;;0.50;;
4754;SDS011;2391;47.212;7.542;2022-11-20T14:38:31;0.37;;;0.37;;
4754;SDS011;2391;47.212;7.542;2022-11-20T14:41:07;0.30;;;0.30;;
4754;SDS011;2391;47.212;7.542;2022-11-20T14:43:35;0.40;;;0.40;;
4754;SDS011;2391;47.212;7.542;2022-11-20T14:46:04;0.40;;;0.40;;
4754;SDS011;2391;47.212;7.542;2022-11-20T14:48:35;0.97;;;0.40;;
4754;SDS011;2391;47.212;7.542;2022-11-20T14:51:05;0.40;;;0.40;;
4754;SDS011;2391;47.212;7.542;2022-11-20T14:53:33;0.50;;;0.50;;
4754;SDS011;2391;47.212;7.542;2022-11-20T14:56:00;0.30;;;0.30;;
4754;SDS011;2391;47.212;7.542;2022-11-20T14:58:29;0.40;;;0.40;;
4754;SDS011;2391;47.212;7.542;2022-11-20T15:00:58;0.50;;;0.50;;
4754;SDS011;2391;47.212;7.542;2022-11-20T15:06:05;0.40;;;0.40;;
4754;SDS011;2391;47.212;7.542;2022-11-20T15:08:33;0.40;;;0.40;;
4754;SDS011;2391;47.212;7.542;2022-11-20T15:11:00;0.40;;;0.40;;
4754;SDS011;2391;47.212;7.542;2022-11-20T15:13:30;0.30;;;0.30;;
4754;SDS011;2391;47.212;7.542;2022-11-20T15:16:00;0.40;;;0.40;;
4754;SDS011;2391;47.212;7.542;2022-11-20T15:18:37;0.37;;;0.37;;
4754;SDS011;2391;47.212;7.542;2022-11-20T15:21:11;0.50;;;0.50;;
4754;SDS011;2391;47.212;7.542;2022-11-20T15:23:39;0.60;;;0.50;;
4754;SDS011;2391;47.212;7.542;2022-11-20T15:26:05;0.70;;;0.40;;
4754;SDS011;2391;47.212;7.542;2022-11-20T15:28:34;0.40;;;0.40;;
4754;SDS011;2391;47.212;7.542;2022-11-20T15:31:03;0.43;;;0.43;;
4754;SDS011;2391;47.212;7.542;2022-11-20T15:33:30;0.83;;;0.53;;
4754;SDS011;2391;47.212;7.542;2022-11-20T15:35:58;0.50;;;0.50;;
4754;SDS011;2391;47.212;7.542;2022-11-20T15:38:25;0.40;;;0.40;;
4754;SDS011;2391;47.212;7.542;2022-11-20T15:40:51;0.50;;;0.50;;
4754;SDS011;2391;47.212;7.542;2022-11-20T15:43:17;0.50;;;0.50;;
4754;SDS011;2391;47.212;7.542;2022-11-20T15:45:44;0.60;;;0.50;;
4754;SDS011;2391;47.212;7.542;2022-11-20T15:48:15;0.50;;;0.50;;
4754;SDS011;2391;47.212;7.542;2022-11-20T15:53:22;0.80;;;0.50;;
4754;SDS011;2391;47.212;7.542;2022-11-20T15:55:48;0.50;;;0.50;;
4754;SDS011;2391;47.212;7.542;2022-11-20T15:58:15;0.60;;;0.60;;
4754;SDS011;2391;47.212;7.542;2022-11-20T16:00:44;0.77;;;0.40;;
4754;SDS011;2391;47.212;7.542;2022-11-20T16:03:13;0.87;;;0.70;;
4754;SDS011;2391;47.212;7.542;2022-11-20T16:05:41;0.77;;;0.50;;
4754;SDS011;2391;47.212;7.542;2022-11-20T16:08:08;0.87;;;0.70;;
4754;SDS011;2391;47.212;7.542;2022-11-20T16:10:34;0.83;;;0.60;;
4754;SDS011;2391;47.212;7.542;2022-11-20T16:13:00;1.20;;;1.10;;
4754;SDS011;2391;47.212;7.542;2022-11-20T16:15:46;0.97;;;0.97;;
4754;SDS011;2391;47.212;7.542;2022-11-20T16:18:16;0.90;;;0.90;;
4754;SDS011;2391;47.212;7.542;2022-11-20T16:20:49;1.00;;;0.73;;
4754;SDS011;2391;47.212;7.542;2022-11-20T16:23:12;2.03;;;1.33;;
4754;SDS011;2391;47.212;7.542;2022-11-20T16:25:39;0.67;;;0.67;;
4754;SDS011;2391;47.212;7.542;2022-11-20T16:28:05;1.30;;;0.90;;
4754;SDS011;2391;47.212;7.542;2022-11-20T16:30:32;1.53;;;0.90;;
4754;SDS011;2391;47.212;7.542;2022-11-20T16:32:59;0.90;;;0.90;;
4754;SDS011;2391;47.212;7.542;2022-11-20T16:35:27;1.00;;;1.00;;
4754;SDS011;2391;47.212;7.542;2022-11-20T16:37:54;1.30;;;0.80;;
4754;SDS011;2391;47.212;7.542;2022-11-20T16:40:21;1.33;;;0.90;;
4754;SDS011;2391;47.212;7.542;2022-11-20T16:42:51;0.80;;;0.80;;
4754;SDS011;2391;47.212;7.542;2022-11-20T16:45:18;2.27;;;1.07;;
4754;SDS011;2391;47.212;7.542;2022-11-20T16:47:44;1.73;;;0.93;;
4754;SDS011;2391;47.212;7.542;2022-11-20T16:50:10;1.20;;;1.20;;
4754;SDS011;2391;47.212;7.542;2022-11-20T16:52:36;2.37;;;2.27;;
4754;SDS011;2391;47.212;7.542;2022-11-20T16:55:02;1.57;;;1.47;;
4754;SDS011;2391;47.212;7.542;2022-11-20T16:57:29;1.20;;;1.10;;
4754;SDS011;2391;47.212;7.542;2022-11-20T17:00:02;0.70;;;0.70;;
4754;SDS011;2391;47.212;7.542;2022-11-20T17:02:26;0.90;;;0.90;;